createdAt,value
2018-03-22T00:00:46.292Z,99.99
2018-03-22T00:03:14.703Z,97.53
2018-03-22T00:04:07.675Z,98.47
2018-03-22T00:07:01.623Z,99.99
2018-03-22T00:09:23.658Z,98.99
2018-03-22T00:10:31.978Z,98.99
2018-03-22T00:11:33.278Z,96.73
2018-03-22T00:13:45.507Z,95.87
2018-03-22T00:14:53.049Z,96.73
2018-03-22T00:15:46.468Z,99.99
2018-03-22T00:16:54.171Z,99.99
2018-03-22T00:18:39.857Z,99.99
2018-03-22T00:19:47.642Z,99.99
2018-03-22T00:20:49.987Z,99.99
2018-03-22T00:22:42.631Z,99.65
2018-03-22T00:23:33.386Z,96.63
2018-03-22T00:26:26.234Z,96.06
2018-03-22T00:27:26.655Z,98.61
2018-03-22T00:28:33.903Z,99.94
2018-03-22T00:30:49.484Z,99.99
2018-03-22T00:31:49.882Z,98.80
2018-03-22T00:33:00.076Z,97.96
2018-03-22T00:34:43.777Z,96.63
2018-03-22T00:35:52.448Z,98.99
2018-03-22T00:37:38.242Z,96.25
2018-03-22T00:38:48.258Z,95.87
2018-03-22T00:40:31.420Z,99.27
2018-03-22T00:41:39.171Z,99.99
2018-03-22T00:42:41.574Z,99.99
2018-03-22T00:44:25.696Z,99.84
2018-03-22T00:45:34.522Z,99.99
2018-03-22T00:47:19.126Z,99.99
2018-03-22T00:49:43.084Z,98.80
2018-03-22T00:50:51.924Z,99.99
2018-03-22T00:52:36.433Z,98.52
2018-03-22T00:54:58.465Z,97.86
2018-03-22T00:55:58.894Z,97.10
2018-03-22T00:57:07.126Z,97.29
2018-03-22T00:58:51.568Z,97.10
2018-03-22T01:00:00.267Z,99.65
2018-03-22T01:01:45.440Z,99.65
2018-03-22T01:04:06.958Z,99.99
2018-03-22T01:05:15.694Z,99.99
2018-03-22T01:07:00.296Z,99.60
2018-03-22T01:09:22.362Z,99.51
2018-03-22T01:10:31.981Z,99.13
2018-03-22T01:12:16.503Z,99.99
2018-03-22T01:13:26.834Z,99.70
2018-03-22T01:15:09.854Z,97.62
2018-03-22T01:16:10.804Z,97.20
2018-03-22T01:18:31.015Z,95.87
2018-03-22T01:19:39.544Z,95.59
2018-03-22T01:21:24.316Z,94.08
2018-03-22T01:22:24.123Z,95.50
2018-03-22T01:23:33.836Z,98.05
2018-03-22T01:25:17.539Z,98.61
2018-03-22T01:26:26.157Z,99.46
2018-03-22T01:28:18.645Z,98.61
2018-03-22T01:29:19.506Z,99.99
2018-03-22T01:31:11.862Z,97.29
2018-03-22T01:33:26.161Z,99.46
2018-03-22T01:34:35.344Z,95.50
2018-03-22T01:36:20.007Z,94.08
2018-03-22T01:38:49.242Z,92.10
2018-03-22T01:39:49.086Z,90.40
2018-03-22T01:40:42.426Z,89.45
2018-03-22T01:41:49.626Z,91.72
2018-03-22T01:42:50.722Z,93.89
2018-03-22T01:44:34.853Z,95.50
2018-03-22T01:46:56.698Z,92.29
2018-03-22T01:49:18.783Z,92.47
2018-03-22T01:50:27.378Z,95.40
2018-03-22T01:52:12.079Z,96.25
2018-03-22T01:53:20.737Z,94.65
2018-03-22T01:55:05.468Z,95.97
2018-03-22T01:56:14.132Z,98.05
2018-03-22T01:58:10.329Z,94.56
2018-03-22T01:58:59.223Z,93.32
2018-03-22T02:00:07.404Z,92.10
2018-03-22T02:01:51.943Z,95.21
2018-03-22T02:03:02.050Z,95.03
2018-03-22T02:04:46.345Z,94.37
2018-03-22T02:05:53.597Z,92.57
2018-03-22T02:08:08.207Z,92.38
2018-03-22T02:09:16.839Z,92.00
2018-03-22T02:10:17.016Z,92.85
2018-03-22T02:12:02.498Z,94.18
2018-03-22T02:13:12.996Z,94.27
2018-03-22T02:14:55.993Z,95.59
2018-03-22T02:16:05.133Z,95.59
2018-03-22T02:17:49.050Z,92.57
2018-03-22T02:18:57.164Z,93.23
2018-03-22T02:19:56.332Z,95.03
2018-03-22T02:20:57.610Z,96.06
2018-03-22T02:22:42.095Z,97.01
2018-03-22T02:23:42.725Z,96.35
2018-03-22T02:24:51.443Z,94.56
2018-03-22T02:26:36.437Z,93.32
2018-03-22T02:27:46.094Z,94.08
2018-03-22T02:29:29.736Z,95.40
2018-03-22T02:30:37.298Z,95.03
2018-03-22T02:31:39.391Z,93.23
2018-03-22T02:33:23.062Z,94.27
2018-03-22T02:34:31.734Z,93.51
2018-03-22T02:36:28.516Z,93.89
2018-03-22T02:37:19.318Z,92.19
2018-03-22T02:38:27.092Z,91.91
2018-03-22T02:40:11.693Z,94.65
2018-03-22T02:41:20.424Z,91.63
2018-03-22T02:43:06.015Z,90.49
2018-03-22T02:44:06.488Z,91.29
2018-03-22T02:45:06.400Z,90.35
2018-03-22T02:47:28.552Z,89.50
2018-03-22T02:48:28.004Z,90.63
2018-03-22T02:51:21.149Z,87.79
2018-03-22T02:52:29.512Z,87.79
2018-03-22T02:54:15.544Z,88.27
